createdAt,value
2017-09-21T08:16:51.940Z,1011.1
2017-09-21T08:17:32.609Z,1011.07
2017-09-21T08:18:13.175Z,1011.02
2017-09-21T08:18:53.741Z,1011.05
2017-09-21T08:19:34.339Z,1011.03
2017-09-21T08:20:14.996Z,1011.09
2017-09-21T08:20:55.721Z,1011.16
2017-09-21T08:21:36.393Z,1011.49
2017-09-21T08:22:16.957Z,1011.86
2017-09-21T08:22:57.518Z,1012.04
2017-09-21T08:23:38.196Z,1011.82
2017-09-21T08:24:18.831Z,1011.39
2017-09-21T08:24:59.581Z,1011.04
2017-09-21T08:25:40.306Z,1010.77
2017-09-21T08:26:20.994Z,1010.71
2017-09-21T08:27:01.787Z,1010.72
2017-09-21T08:27:42.417Z,1010.71
2017-09-21T08:28:23.039Z,1010.72
2017-09-21T08:29:03.646Z,1010.73
2017-09-21T08:29:44.358Z,1010.7
2017-09-21T08:30:25.081Z,1010.67
2017-09-21T08:31:05.873Z,1010.68
2017-09-21T08:31:46.576Z,1010.68
2017-09-21T08:32:27.372Z,1010.69
2017-09-21T08:33:08.011Z,1010.68
2017-09-21T08:33:48.660Z,1010.65
2017-09-21T08:34:29.279Z,1010.69
2017-09-21T08:35:09.892Z,1010.68
2017-09-21T08:35:50.554Z,1010.7
2017-09-21T08:36:31.187Z,1010.69
2017-09-21T08:37:11.810Z,1010.69
2017-09-21T08:37:52.492Z,1010.73
2017-09-21T08:38:33.153Z,1010.75
2017-09-21T08:39:13.819Z,1010.77
2017-09-21T08:39:54.529Z,1010.75
2017-09-21T08:40:35.122Z,1010.78
2017-09-21T08:41:16.593Z,1010.75
2017-09-21T08:41:57.231Z,1010.72
2017-09-21T08:42:37.760Z,1010.74
2017-09-21T08:43:18.985Z,1010.75
2017-09-21T08:43:59.657Z,1010.78
2017-09-21T08:44:40.283Z,1010.75
2017-09-21T08:45:20.994Z,1010.73
2017-09-21T08:46:01.606Z,1010.71
2017-09-21T08:46:42.533Z,1010.72
2017-09-21T08:47:23.167Z,1010.7
2017-09-21T08:48:03.790Z,1010.73
2017-09-21T08:48:44.550Z,1010.77
2017-09-21T08:49:25.356Z,1010.76
2017-09-21T08:50:06.144Z,1010.77
2017-09-21T08:50:46.770Z,1010.81
2017-09-21T08:51:27.467Z,1010.79
2017-09-21T08:52:08.100Z,1010.77
2017-09-21T08:52:48.758Z,1010.76
2017-09-21T08:53:29.339Z,1010.75
2017-09-21T08:54:09.897Z,1010.76
2017-09-21T08:54:50.448Z,1010.79
2017-09-21T08:55:31.039Z,1010.77
2017-09-21T08:56:11.752Z,1010.76
2017-09-21T08:56:52.324Z,1010.78
2017-09-21T08:57:32.989Z,1010.74
2017-09-21T08:58:13.609Z,1010.78
2017-09-21T08:58:54.243Z,1010.75
2017-09-21T08:59:34.852Z,1010.74
2017-09-21T09:00:15.426Z,1010.77
2017-09-21T09:00:56.137Z,1010.74
2017-09-21T09:01:36.734Z,1010.79
2017-09-21T09:02:17.227Z,1010.77
2017-09-21T09:02:57.827Z,1010.8
2017-09-21T09:03:38.406Z,1010.76
2017-09-21T09:04:19.019Z,1010.82
2017-09-21T09:04:59.762Z,1010.77
2017-09-21T09:05:40.529Z,1010.82
2017-09-21T09:06:21.385Z,1010.83
2017-09-21T09:07:02.086Z,1010.83
2017-09-21T09:07:43.623Z,1010.89
2017-09-21T09:08:24.364Z,1010.88
2017-09-21T09:09:05.040Z,1010.84
2017-09-21T09:09:45.684Z,1010.86
2017-09-21T09:10:26.417Z,1010.87
2017-09-21T09:11:07.061Z,1010.88
2017-09-21T09:11:47.728Z,1010.88
2017-09-21T09:12:28.378Z,1010.86
2017-09-21T09:13:09.343Z,1010.86
2017-09-21T09:13:50.013Z,1010.82
2017-09-21T09:14:31.645Z,1010.82
2017-09-21T09:15:12.339Z,1010.85
2017-09-21T09:15:53.104Z,1010.84
2017-09-21T09:16:34.092Z,1010.85
2017-09-21T09:17:14.823Z,1010.83
2017-09-21T09:17:55.475Z,1010.85
2017-09-21T09:18:36.483Z,1010.86
2017-09-21T09:19:17.119Z,1010.82
2017-09-21T09:19:58.031Z,1010.83
2017-09-21T09:20:38.763Z,1010.76
2017-09-21T09:21:19.373Z,1010.65
2017-09-21T09:22:00.166Z,1010.69
2017-09-21T09:22:40.999Z,1010.64
2017-09-21T09:23:21.663Z,1010.59
2017-09-21T09:24:02.960Z,1010.62
2017-09-21T09:24:44.596Z,1010.62
2017-09-21T09:25:25.311Z,1010.59
2017-09-21T09:26:06.069Z,1010.6
2017-09-21T09:26:46.833Z,1010.63
2017-09-21T09:27:27.620Z,1010.6
2017-09-21T09:28:08.286Z,1010.6
2017-09-21T09:28:48.965Z,1010.62
2017-09-21T09:29:29.714Z,1010.68
2017-09-21T09:30:11.106Z,1010.74
2017-09-21T09:30:52.374Z,1010.78
2017-09-21T09:31:33.019Z,1010.76
2017-09-21T09:32:13.733Z,1010.79
2017-09-21T09:32:54.476Z,1010.81
2017-09-21T09:33:35.262Z,1010.85
2017-09-21T09:34:16.049Z,1010.84
2017-09-21T09:34:56.739Z,1010.87
2017-09-21T09:35:37.387Z,1010.86
2017-09-21T09:36:18.149Z,1010.84
2017-09-21T09:36:58.988Z,1010.84
2017-09-21T09:37:39.658Z,1010.81
2017-09-21T09:38:20.380Z,1010.81
2017-09-21T09:39:01.041Z,1010.75
2017-09-21T09:39:41.789Z,1010.8
2017-09-21T09:40:22.451Z,1010.77
2017-09-21T09:41:03.134Z,1010.78
2017-09-21T09:41:43.797Z,1010.81
2017-09-21T09:42:24.508Z,1010.79
2017-09-21T09:43:05.232Z,1010.81
2017-09-21T09:43:45.964Z,1010.79
2017-09-21T09:44:26.670Z,1010.83
2017-09-21T09:45:07.515Z,1010.82
2017-09-21T09:45:48.026Z,1010.8
2017-09-21T09:46:28.699Z,1010.81
2017-09-21T09:47:09.404Z,1010.81
2017-09-21T09:47:50.168Z,1010.75
2017-09-21T09:48:30.846Z,1010.75
2017-09-21T09:49:11.802Z,1010.76
2017-09-21T09:49:52.542Z,1010.73
2017-09-21T09:50:33.200Z,1010.74
2017-09-21T09:51:13.980Z,1010.73
2017-09-21T09:51:54.942Z,1010.69
2017-09-21T09:52:35.888Z,1010.7
2017-09-21T09:53:16.775Z,1010.67
2017-09-21T09:53:57.644Z,1010.67
2017-09-21T09:54:38.953Z,1010.67
2017-09-21T09:55:19.764Z,1010.62
2017-09-21T09:56:00.547Z,1010.55
2017-09-21T09:56:41.329Z,1010.44
2017-09-21T09:57:21.996Z,1010.37
2017-09-21T09:58:02.746Z,1010.38
2017-09-21T09:58:43.383Z,1010.38
2017-09-21T09:59:24.009Z,1010.42
2017-09-21T10:00:04.800Z,1010.35
2017-09-21T10:00:45.794Z,1010.37
2017-09-21T10:01:26.783Z,1010.37
2017-09-21T10:02:08.710Z,1010.35
2017-09-21T10:02:49.551Z,1010.33
2017-09-21T10:03:30.248Z,1010.37
2017-09-21T10:04:11.160Z,1010.37
2017-09-21T10:04:51.948Z,1010.38
2017-09-21T10:05:32.673Z,1010.38
2017-09-21T10:06:13.377Z,1010.37
2017-09-21T10:06:54.033Z,1010.38
2017-09-21T10:07:34.708Z,1010.37
2017-09-21T10:08:15.350Z,1010.38
2017-09-21T10:08:56.060Z,1010.43
2017-09-21T10:09:36.854Z,1010.41
2017-09-21T10:10:17.500Z,1010.37
2017-09-21T10:10:58.170Z,1010.39
2017-09-21T10:11:38.823Z,1010.4
2017-09-21T10:12:19.478Z,1010.4
2017-09-21T10:13:00.180Z,1010.38
2017-09-21T10:13:40.961Z,1010.41
2017-09-21T10:14:21.528Z,1010.42
2017-09-21T10:15:02.152Z,1010.41
2017-09-21T10:15:42.800Z,1010.45
2017-09-21T10:16:23.571Z,1010.47
2017-09-21T10:17:04.187Z,1010.55
2017-09-21T10:17:44.748Z,1010.66
2017-09-21T10:18:25.470Z,1010.77
2017-09-21T10:19:06.053Z,1010.8
2017-09-21T10:19:46.636Z,1010.83
2017-09-21T10:20:27.426Z,1010.82
2017-09-21T10:21:08.065Z,1010.85
2017-09-21T10:21:48.641Z,1010.91
2017-09-21T10:22:29.128Z,1010.83
2017-09-21T10:23:09.612Z,1010.86
2017-09-21T10:23:50.073Z,1010.84
2017-09-21T10:24:30.592Z,1010.86
2017-09-21T10:25:11.101Z,1010.89
2017-09-21T10:25:51.565Z,1010.85
2017-09-21T10:26:31.996Z,1010.82
2017-09-21T10:28:24.591Z,1010.85
2017-09-21T10:29:05.065Z,1010.8
2017-09-21T10:29:45.532Z,1010.76
2017-09-21T10:30:26.095Z,1010.74
2017-09-21T10:31:06.570Z,1010.72
2017-09-21T10:31:47.043Z,1010.75
2017-09-21T10:32:27.571Z,1010.78
2017-09-21T10:33:08.142Z,1010.71
2017-09-21T10:33:48.582Z,1010.7
2017-09-21T10:34:29.252Z,1010.73
2017-09-21T10:36:21.834Z,1010.7
2017-09-21T10:37:02.277Z,1010.7
2017-09-21T10:37:42.804Z,1010.69
2017-09-21T10:38:23.335Z,1010.73
2017-09-21T10:39:03.808Z,1010.67
2017-09-21T10:39:44.318Z,1010.7
2017-09-21T10:40:24.828Z,1010.71
2017-09-21T10:41:05.404Z,1010.7
2017-09-21T10:41:46.074Z,1010.69
2017-09-21T10:42:26.614Z,1010.68
2017-09-21T10:43:07.200Z,1010.66
2017-09-21T10:43:47.769Z,1010.63
2017-09-21T10:44:28.285Z,1010.67
2017-09-21T10:45:08.814Z,1010.67
2017-09-21T10:45:49.272Z,1010.65
2017-09-21T10:46:29.734Z,1010.64
2017-09-21T10:47:10.348Z,1010.64
2017-09-21T10:47:50.823Z,1010.65
2017-09-21T10:48:31.620Z,1010.63
2017-09-21T10:49:12.121Z,1010.61
2017-09-21T10:49:52.542Z,1010.65
2017-09-21T10:50:33.086Z,1010.68
2017-09-21T10:51:13.503Z,1010.71
2017-09-21T10:51:54.052Z,1010.71
2017-09-21T10:54:06.805Z,1010.77
2017-09-21T10:54:47.322Z,1010.76
2017-09-21T10:55:27.906Z,1010.76
2017-09-21T10:56:08.332Z,1010.79
2017-09-21T10:58:36.397Z,1010.82
2017-09-21T10:59:16.791Z,1010.85
2017-09-21T10:59:57.281Z,1010.88
2017-09-21T11:00:37.837Z,1010.93
2017-09-21T11:02:30.466Z,1010.95
2017-09-21T11:03:11.011Z,1010.98
2017-09-21T11:03:51.513Z,1010.99
2017-09-21T11:04:31.959Z,1011.03
2017-09-21T11:05:12.454Z,1011.05
2017-09-21T11:05:52.924Z,1011.01
2017-09-21T11:06:33.422Z,1011.01
2017-09-21T11:07:13.885Z,1011.05
2017-09-21T11:07:54.341Z,1011.02
2017-09-21T11:09:46.970Z,1011.03
2017-09-21T11:10:27.691Z,1011.1
2017-09-21T11:11:08.063Z,1011.14
2017-09-21T11:11:48.558Z,1011.14
2017-09-21T11:12:29.044Z,1011.15
2017-09-21T11:13:09.489Z,1011.16
2017-09-21T11:13:50.032Z,1011.19
2017-09-21T11:14:30.538Z,1011.18
2017-09-21T11:15:11.125Z,1011.25
2017-09-21T11:15:51.564Z,1011.27
2017-09-21T11:16:32.019Z,1011.31
2017-09-21T11:17:12.528Z,1011.29
2017-09-21T11:17:52.980Z,1011.35
2017-09-21T11:18:33.432Z,1011.4
2017-09-21T11:19:13.897Z,1011.43
2017-09-21T11:19:54.336Z,1011.45
2017-09-21T11:20:34.810Z,1011.51
2017-09-21T11:21:15.276Z,1011.57
2017-09-21T11:21:55.669Z,1011.61
2017-09-21T11:22:36.185Z,1011.65
2017-09-21T11:23:16.668Z,1011.7
2017-09-21T11:23:57.189Z,1011.81
2017-09-21T11:24:37.649Z,1011.92
2017-09-21T11:25:18.133Z,1012.05
2017-09-21T11:25:58.778Z,1012.11
2017-09-21T11:26:39.238Z,1012.03
2017-09-21T11:28:52.123Z,1012.32
2017-09-21T11:29:32.541Z,1012.54
2017-09-21T11:30:12.996Z,1012.61
2017-09-21T11:30:53.517Z,1012.73
2017-09-21T11:31:34.023Z,1012.83
2017-09-21T11:32:14.528Z,1012.99
2017-09-21T11:32:55.011Z,1013.04
2017-09-21T11:33:35.652Z,1013.08
2017-09-21T11:34:16.158Z,1013.2
2017-09-21T11:34:56.676Z,1013.34
2017-09-21T11:35:38.354Z,1013.51
2017-09-21T11:36:18.842Z,1013.73
2017-09-21T11:36:59.383Z,1013.76
2017-09-21T11:37:39.917Z,1013.83
2017-09-21T11:38:20.466Z,1013.91
2017-09-21T11:39:00.997Z,1014.13
2017-09-21T11:39:41.358Z,1014.32
2017-09-21T11:40:21.822Z,1014.63
2017-09-21T11:41:02.268Z,1014.83
2017-09-21T11:43:30.487Z,1015.23
2017-09-21T11:44:10.955Z,1015.38
2017-09-21T11:44:51.422Z,1015.55
2017-09-21T11:45:31.944Z,1015.64
2017-09-21T11:46:14.585Z,1015.8
2017-09-21T11:46:56.621Z,1016.04
2017-09-21T11:47:38.036Z,1016.14
2017-09-21T11:49:30.986Z,1015.91
2017-09-21T11:50:11.485Z,1015.79
2017-09-21T11:50:52.083Z,1016.02
2017-09-21T11:51:32.618Z,1016.11
2017-09-21T11:52:13.096Z,1016.55
2017-09-21T11:52:53.671Z,1016.81
2017-09-21T11:53:34.131Z,1017.24
2017-09-21T11:54:14.586Z,1017.48
2017-09-21T11:54:55.075Z,1017.5
2017-09-21T11:55:35.520Z,1017.6
2017-09-21T11:56:15.964Z,1017.66
2017-09-21T11:56:56.430Z,1017.99
2017-09-21T11:57:36.985Z,1017.77
2017-09-21T11:58:17.479Z,1017.98
2017-09-21T11:58:58.024Z,1018.4
2017-09-21T11:59:38.611Z,1018.39
2017-09-21T12:00:19.091Z,1018.31
2017-09-21T12:00:59.584Z,1018.45
2017-09-21T12:01:40.081Z,1018.41
2017-09-21T12:02:21.589Z,1018.34
2017-09-21T12:03:02.135Z,1018.36
2017-09-21T12:03:42.602Z,1018.21
2017-09-21T12:04:23.204Z,1018.04
2017-09-21T12:05:03.716Z,1017.95
2017-09-21T12:05:44.236Z,1017.94
2017-09-21T12:06:24.693Z,1017.91
2017-09-21T12:07:05.174Z,1017.88
2017-09-21T12:07:45.678Z,1018.38
2017-09-21T12:08:26.208Z,1018.73
2017-09-21T12:09:06.831Z,1018.88
2017-09-21T12:09:47.269Z,1018.77
2017-09-21T12:10:27.807Z,1018.66
2017-09-21T12:11:08.342Z,1018.54
2017-09-21T12:11:48.804Z,1018.59
2017-09-21T12:12:29.360Z,1018.43
2017-09-21T12:13:09.936Z,1018.23
2017-09-21T12:13:50.293Z,1017.99
2017-09-21T12:14:30.828Z,1017.87
2017-09-21T12:15:11.260Z,1017.64
2017-09-21T12:17:03.888Z,1017.53
2017-09-21T12:17:44.679Z,1017.66
2017-09-21T12:18:25.151Z,1017.56
2017-09-21T12:19:05.686Z,1017.4
2017-09-21T12:19:46.155Z,1017.28
2017-09-21T12:22:14.189Z,1016.92
2017-09-21T12:22:54.761Z,1016.91
2017-09-21T12:23:35.300Z,1016.86
2017-09-21T12:24:15.746Z,1016.88
2017-09-21T12:24:56.227Z,1016.71
2017-09-21T12:26:48.823Z,1012.92
2017-09-21T12:27:29.359Z,1010.15
2017-09-21T12:28:10.145Z,1009.57
2017-09-21T12:28:50.706Z,1009.42
2017-09-21T12:29:31.160Z,1009.38
2017-09-21T12:30:11.629Z,1009.32
2017-09-21T12:30:52.098Z,1009.29
2017-09-21T12:33:10.090Z,1009.19
2017-09-21T12:33:50.654Z,1009.15
2017-09-21T12:34:31.065Z,1009.14
2017-09-21T12:35:11.555Z,1009.12
2017-09-21T12:37:39.596Z,1009.06
2017-09-21T12:38:19.980Z,1009.09
2017-09-21T12:39:00.477Z,1009.02
2017-09-21T12:39:40.996Z,1009
2017-09-21T12:40:21.619Z,1008.99
2017-09-21T12:41:02.119Z,1008.99
2017-09-21T12:41:42.683Z,1008.98
2017-09-21T12:42:23.235Z,1008.99
2017-09-21T12:43:03.805Z,1009.02
2017-09-21T12:43:44.316Z,1008.97
2017-09-21T12:44:24.766Z,1008.93
2017-09-21T12:45:05.223Z,1008.96
2017-09-21T12:45:45.683Z,1008.95
2017-09-21T12:46:26.140Z,1008.92
2017-09-21T12:47:06.717Z,1008.97
2017-09-21T12:47:47.178Z,1008.92
2017-09-21T12:48:27.879Z,1008.87
2017-09-21T12:49:08.554Z,1008.93
2017-09-21T12:49:48.855Z,1008.95
2017-09-21T12:50:29.304Z,1008.92
2017-09-21T12:51:09.813Z,1008.96
2017-09-21T12:51:50.270Z,1008.92
2017-09-21T12:52:31.402Z,1008.89
2017-09-21T12:53:12.044Z,1008.92
2017-09-21T12:53:52.743Z,1008.86
2017-09-21T12:54:33.188Z,1008.9
2017-09-21T12:55:13.681Z,1008.87
2017-09-21T12:55:54.322Z,1008.89
2017-09-21T12:56:34.770Z,1008.89
2017-09-21T12:57:15.722Z,1008.85
2017-09-21T12:57:56.242Z,1008.85
2017-09-21T12:58:36.863Z,1008.82
2017-09-21T12:59:17.500Z,1008.83
2017-09-21T12:59:58.344Z,1008.85
2017-09-21T13:00:38.856Z,1008.85
2017-09-21T13:02:56.965Z,1008.88
2017-09-21T13:03:37.446Z,1008.9
2017-09-21T13:05:50.253Z,1009.49
2017-09-21T13:06:30.741Z,1009.55
2017-09-21T13:07:11.198Z,1009.61
2017-09-21T13:07:51.660Z,1009.66
2017-09-21T13:08:32.203Z,1009.63
2017-09-21T13:10:30.193Z,1009.47
2017-09-21T13:11:10.534Z,1009.52
2017-09-21T13:11:51.024Z,1009.58
2017-09-21T13:12:31.495Z,1009.59
2017-09-21T13:13:12.026Z,1009.55
2017-09-21T13:13:52.455Z,1009.52
2017-09-21T13:14:33.065Z,1009.49
2017-09-21T13:15:13.778Z,1009.5
2017-09-21T13:15:54.308Z,1009.52
2017-09-21T13:16:34.836Z,1009.39
2017-09-21T13:17:15.449Z,1009.44
2017-09-21T13:17:55.925Z,1009.38
2017-09-21T13:18:36.567Z,1009.38
2017-09-21T13:19:17.029Z,1009.35
2017-09-21T13:19:57.604Z,1009.33
2017-09-21T13:20:38.097Z,1009.37
2017-09-21T13:21:18.685Z,1009.35
2017-09-21T13:21:59.174Z,1009.41
2017-09-21T13:22:39.668Z,1009.34
2017-09-21T13:23:20.238Z,1009.38
2017-09-21T13:24:00.777Z,1009.28
2017-09-21T13:24:41.305Z,1009.27
2017-09-21T13:25:21.738Z,1009.25
2017-09-21T13:26:02.262Z,1009.23
2017-09-21T13:26:42.697Z,1009.26
2017-09-21T13:30:32.985Z,1009.17
2017-09-21T13:31:13.481Z,1009.11
2017-09-21T13:31:53.993Z,1009.11
2017-09-21T13:32:34.509Z,1009.1
2017-09-21T13:33:15.119Z,1009.08
2017-09-21T13:33:55.491Z,1009.06
2017-09-21T13:34:35.979Z,1009.04
2017-09-21T13:35:16.590Z,1009
2017-09-21T13:35:57.313Z,1008.92
2017-09-21T13:36:37.989Z,1008.94
2017-09-21T13:37:18.585Z,1008.93
2017-09-21T13:37:59.225Z,1008.94
2017-09-21T13:38:39.946Z,1008.92
2017-09-21T13:39:20.805Z,1008.89
2017-09-21T13:40:01.460Z,1008.91
2017-09-21T13:40:42.084Z,1008.9
2017-09-21T13:41:22.929Z,1008.89
2017-09-21T13:42:03.443Z,1008.88
2017-09-21T13:42:44.026Z,1008.85
2017-09-21T13:43:24.518Z,1008.88
2017-09-21T13:44:05.069Z,1008.86
2017-09-21T13:44:45.568Z,1008.83
2017-09-21T13:45:26.083Z,1008.77
2017-09-21T13:46:06.605Z,1008.72
2017-09-21T13:46:47.089Z,1008.71
2017-09-21T13:47:27.643Z,1008.69
2017-09-21T13:48:08.125Z,1008.66
2017-09-21T13:48:48.606Z,1008.69
2017-09-21T13:49:29.126Z,1008.71
2017-09-21T13:50:09.597Z,1008.71
2017-09-21T13:50:50.264Z,1008.67
2017-09-21T13:51:30.728Z,1008.67
2017-09-21T13:52:11.193Z,1008.75
2017-09-21T13:52:51.717Z,1008.68
2017-09-21T13:53:32.193Z,1008.73
2017-09-21T13:54:12.763Z,1008.68
2017-09-21T13:54:53.250Z,1008.66
2017-09-21T13:55:33.767Z,1008.67
2017-09-21T13:56:14.279Z,1008.64
2017-09-21T13:56:54.797Z,1008.66
2017-09-21T13:57:35.260Z,1008.66
2017-09-21T13:58:15.779Z,1008.66
2017-09-21T13:58:56.281Z,1008.64
2017-09-21T13:59:36.801Z,1008.66
2017-09-21T14:00:17.381Z,1008.66
2017-09-21T14:00:57.926Z,1008.64
2017-09-21T14:01:38.453Z,1008.62
2017-09-21T14:02:19.025Z,1008.63
2017-09-21T14:02:59.487Z,1008.59
2017-09-21T14:03:40.077Z,1008.54
2017-09-21T14:04:20.582Z,1008.51
2017-09-21T14:05:01.103Z,1008.48
2017-09-21T14:06:58.729Z,1008.4
2017-09-21T14:07:39.202Z,1008.4
2017-09-21T14:08:19.750Z,1008.38
2017-09-21T14:09:00.229Z,1008.31
2017-09-21T14:09:40.641Z,1008.32
2017-09-21T14:10:21.085Z,1008.36
2017-09-21T14:11:01.529Z,1008.35
2017-09-21T14:11:42.050Z,1008.35
2017-09-21T14:14:17.991Z,1008.31
2017-09-21T14:14:58.517Z,1008.29
2017-09-21T14:15:38.988Z,1008.27
2017-09-21T14:16:19.435Z,1008.32
2017-09-21T14:16:59.894Z,1008.33
2017-09-21T14:17:40.367Z,1008.25
2017-09-21T14:18:20.909Z,1008.23
2017-09-21T14:19:01.383Z,1008.25
2017-09-21T14:19:41.870Z,1008.22
2017-09-21T14:20:22.332Z,1008.23
2017-09-21T14:21:02.781Z,1008.26
2017-09-21T14:21:43.251Z,1008.24
2017-09-21T14:22:23.732Z,1008.25
2017-09-21T14:23:04.245Z,1008.26
2017-09-21T14:23:44.800Z,1008.25
2017-09-21T14:24:25.235Z,1008.25
2017-09-21T14:25:05.727Z,1008.21
2017-09-21T14:25:46.306Z,1008.22
2017-09-21T14:26:26.722Z,1008.26
2017-09-21T14:27:07.318Z,1008.25
2017-09-21T14:27:47.823Z,1008.18
2017-09-21T14:28:28.311Z,1008.17
2017-09-21T14:29:08.997Z,1008.18
2017-09-21T14:29:49.457Z,1008.17
2017-09-21T14:30:29.973Z,1008.13
2017-09-21T14:31:10.459Z,1008.07
2017-09-21T14:31:50.924Z,1008.11
2017-09-21T14:32:31.440Z,1008.11
2017-09-21T14:33:11.867Z,1008.12
2017-09-21T14:33:52.349Z,1008.09
2017-09-21T14:34:32.997Z,1008.07
2017-09-21T14:35:13.592Z,1008.01
2017-09-21T14:35:54.146Z,1007.98
2017-09-21T14:36:34.655Z,1007.93
2017-09-21T14:37:15.209Z,1007.87
2017-09-21T14:37:55.639Z,1007.86
2017-09-21T14:38:36.171Z,1007.84
2017-09-21T14:39:16.669Z,1007.79
2017-09-21T14:39:57.120Z,1007.79
2017-09-21T14:40:37.614Z,1007.82
2017-09-21T14:41:18.056Z,1007.78
2017-09-21T14:41:58.518Z,1007.81
2017-09-21T14:42:39.009Z,1007.79
2017-09-21T14:43:19.498Z,1007.8
2017-09-21T14:44:00.033Z,1007.75
2017-09-21T14:44:40.437Z,1007.78
2017-09-21T14:47:08.463Z,1007.77
2017-09-21T14:47:48.903Z,1007.77
2017-09-21T14:50:06.764Z,1007.78
2017-09-21T14:50:47.194Z,1007.86
2017-09-21T14:51:27.700Z,1007.84
2017-09-21T14:52:08.242Z,1007.86
2017-09-21T14:52:48.759Z,1007.96
2017-09-21T14:53:29.214Z,1008.01
2017-09-21T14:54:09.777Z,1008.17
2017-09-21T14:54:50.270Z,1008.34
2017-09-21T14:55:30.736Z,1008.51
2017-09-21T14:56:11.249Z,1008.61
2017-09-21T14:58:24.345Z,1008.89
2017-09-21T14:59:04.824Z,1008.73
2017-09-21T14:59:45.324Z,1008.49
2017-09-21T15:00:25.762Z,1008.2
2017-09-21T15:01:06.236Z,1008.08
2017-09-21T15:01:46.945Z,1008.03
2017-09-21T15:02:27.423Z,1007.99
2017-09-21T15:04:40.154Z,1008.14
2017-09-21T15:05:20.645Z,1008.14
2017-09-21T15:06:01.100Z,1008.18
2017-09-21T15:06:41.582Z,1008.23
2017-09-21T15:08:59.515Z,1008.24
2017-09-21T15:09:40.239Z,1008.3
2017-09-21T15:10:20.517Z,1008.33
2017-09-21T15:11:00.976Z,1008.4
2017-09-21T15:11:41.421Z,1008.39
2017-09-21T15:12:22.824Z,1008.39
2017-09-21T15:13:03.334Z,1008.39
2017-09-21T15:13:43.829Z,1008.39
2017-09-21T15:14:24.315Z,1008.4
2017-09-21T15:15:04.860Z,1008.35
2017-09-21T15:15:45.468Z,1008.35
2017-09-21T15:17:43.231Z,1008.27
2017-09-21T15:18:23.743Z,1008.31
2017-09-21T15:19:04.313Z,1008.22
2017-09-21T15:19:44.773Z,1008.2
2017-09-21T15:20:25.244Z,1008.18
2017-09-21T15:21:05.727Z,1008.15
2017-09-21T15:21:46.166Z,1008.1
2017-09-21T15:22:26.724Z,1008.08
2017-09-21T15:23:07.176Z,1008.07
2017-09-21T15:23:47.654Z,1008.03
2017-09-21T15:24:28.180Z,1008.07
2017-09-21T15:25:08.652Z,1008.1
2017-09-21T15:25:49.209Z,1008.09
2017-09-21T15:26:29.665Z,1008.11
2017-09-21T15:28:47.899Z,1008.19
2017-09-21T15:29:28.396Z,1008.2
2017-09-21T15:30:08.837Z,1008.25
2017-09-21T15:30:49.333Z,1008.23
2017-09-21T15:31:29.796Z,1008.24
2017-09-21T15:32:10.362Z,1008.21
2017-09-21T15:32:50.864Z,1008.17
2017-09-21T15:33:31.336Z,1008.2
2017-09-21T15:34:11.926Z,1008.16
2017-09-21T15:34:52.402Z,1008.04
2017-09-21T15:35:32.854Z,1008.05
2017-09-21T15:36:13.513Z,1008.03
2017-09-21T15:36:53.984Z,1008.04
2017-09-21T15:37:34.439Z,1007.93
2017-09-21T15:38:14.932Z,1007.74
2017-09-21T15:38:55.392Z,1007.57
2017-09-21T15:39:35.972Z,1007.59
2017-09-21T15:40:16.488Z,1007.54
2017-09-21T15:40:57.647Z,1007.52
2017-09-21T15:41:38.254Z,1007.49
2017-09-21T15:42:18.692Z,1007.49
2017-09-21T15:42:59.222Z,1007.47
2017-09-21T15:43:39.702Z,1007.48
2017-09-21T15:44:20.223Z,1007.46
2017-09-21T15:45:00.757Z,1007.48
2017-09-21T15:45:41.191Z,1007.45
2017-09-21T15:46:21.644Z,1007.5
2017-09-21T15:47:02.082Z,1007.45
2017-09-21T15:47:42.536Z,1007.46
2017-09-21T15:48:23.406Z,1007.46
2017-09-21T15:50:51.378Z,1007.39
2017-09-21T15:51:31.772Z,1007.41
2017-09-21T15:52:12.311Z,1007.42
2017-09-21T15:52:52.663Z,1007.4
2017-09-21T15:53:33.177Z,1007.39
2017-09-21T15:54:13.596Z,1007.41
2017-09-21T15:54:54.164Z,1007.41
2017-09-21T15:55:34.592Z,1007.38
2017-09-21T15:56:15.117Z,1007.39
2017-09-21T15:56:55.777Z,1007.38
2017-09-21T15:57:36.262Z,1007.42
2017-09-21T15:58:16.722Z,1007.4
2017-09-21T15:58:57.324Z,1007.38
2017-09-21T15:59:37.745Z,1007.42
2017-09-21T16:00:18.286Z,1007.37
2017-09-21T16:00:58.700Z,1007.36
2017-09-21T16:02:56.342Z,1007.36
2017-09-21T16:03:36.790Z,1007.34
2017-09-21T16:04:17.301Z,1007.34
2017-09-21T16:04:57.823Z,1007.32
2017-09-21T16:05:38.416Z,1007.34
2017-09-21T16:06:18.862Z,1007.33
2017-09-21T16:06:59.286Z,1007.33
2017-09-21T16:07:39.753Z,1007.33
2017-09-21T16:08:20.274Z,1007.32
2017-09-21T16:09:00.776Z,1007.31
2017-09-21T16:09:41.261Z,1007.32
2017-09-21T16:10:21.763Z,1007.33
2017-09-21T16:11:02.158Z,1007.31
2017-09-21T16:11:42.703Z,1007.33
2017-09-21T16:13:42.220Z,1007.28
2017-09-21T16:14:23.640Z,1007.3
2017-09-21T16:15:05.771Z,1007.26
2017-09-21T16:17:34.017Z,1007.29
2017-09-21T16:18:14.448Z,1007.28
2017-09-21T16:18:54.953Z,1007.27
2017-09-21T16:19:35.417Z,1007.28
2017-09-21T16:20:16.032Z,1007.28
2017-09-21T16:20:56.453Z,1007.28
2017-09-21T16:21:36.968Z,1007.23
2017-09-21T16:22:17.393Z,1007.27
2017-09-21T16:22:57.851Z,1007.29
2017-09-21T16:23:38.337Z,1007.25
2017-09-21T16:24:18.916Z,1007.27
2017-09-21T16:24:59.371Z,1007.26
2017-09-21T16:26:56.979Z,1007.29
2017-09-21T16:27:37.499Z,1007.31
2017-09-21T16:28:17.941Z,1007.28
2017-09-21T16:28:58.406Z,1007.27
2017-09-21T16:29:38.911Z,1007.28
2017-09-21T16:30:19.387Z,1007.26
2017-09-21T16:30:59.845Z,1007.25
2017-09-21T16:31:40.283Z,1007.25
2017-09-21T16:32:20.752Z,1007.26
2017-09-21T16:33:01.216Z,1007.26
2017-09-21T16:33:41.819Z,1007.25
2017-09-21T16:34:22.186Z,1007.25
2017-09-21T16:35:02.628Z,1007.26
2017-09-21T16:35:43.063Z,1007.25
2017-09-21T16:36:23.516Z,1007.24
2017-09-21T16:37:03.972Z,1007.24
2017-09-21T16:37:44.418Z,1007.26
2017-09-21T16:38:25.027Z,1007.26
2017-09-21T16:39:05.689Z,1007.23
2017-09-21T16:39:46.261Z,1007.23
2017-09-21T16:40:26.678Z,1007.24
2017-09-21T16:41:07.138Z,1007.21
2017-09-21T16:41:47.571Z,1007.23
2017-09-21T16:42:28.202Z,1007.24
2017-09-21T16:43:08.684Z,1007.27
2017-09-21T16:43:49.159Z,1007.22
2017-09-21T16:44:29.621Z,1007.24
2017-09-21T16:45:10.065Z,1007.21
2017-09-21T16:45:50.513Z,1007.25
2017-09-21T16:46:31.003Z,1007.27
2017-09-21T16:47:11.504Z,1007.27
2017-09-21T16:47:51.990Z,1007.27
2017-09-21T16:48:32.464Z,1007.28
2017-09-21T16:49:12.923Z,1007.27
2017-09-21T16:49:53.367Z,1007.28
2017-09-21T16:50:34.795Z,1007.29
2017-09-21T16:51:15.276Z,1007.26
2017-09-21T16:51:55.763Z,1007.28
2017-09-21T16:52:36.222Z,1007.29
2017-09-21T16:53:16.691Z,1007.27
2017-09-21T16:53:57.172Z,1007.25
2017-09-21T16:54:37.585Z,1007.23
2017-09-21T16:55:18.067Z,1007.27
2017-09-21T16:55:58.606Z,1007.22
2017-09-21T16:56:39.071Z,1007.22
2017-09-21T16:57:19.547Z,1007.21
2017-09-21T16:58:00.090Z,1007.24
2017-09-21T16:58:40.467Z,1007.25
2017-09-21T16:59:20.982Z,1007.22
2017-09-21T17:00:01.474Z,1007.24
2017-09-21T17:00:42.042Z,1007.24
2017-09-21T17:01:22.490Z,1007.28
2017-09-21T17:02:02.957Z,1007.28
2017-09-21T17:02:43.429Z,1007.25
2017-09-21T17:03:24.039Z,1007.26
2017-09-21T17:04:04.472Z,1007.26
2017-09-21T17:04:44.971Z,1007.22
2017-09-21T17:05:25.458Z,1007.26
2017-09-21T17:06:05.895Z,1007.26
2017-09-21T17:06:46.374Z,1007.22
2017-09-21T17:07:26.798Z,1007.25
2017-09-21T17:08:07.227Z,1007.25
2017-09-21T17:08:47.679Z,1007.25
2017-09-21T17:11:00.560Z,1007.27
2017-09-21T17:11:41.003Z,1007.26
2017-09-21T17:12:21.499Z,1007.25
2017-09-21T17:13:01.931Z,1007.24
2017-09-21T17:13:42.376Z,1007.23
2017-09-21T17:14:22.838Z,1007.23
2017-09-21T17:15:03.307Z,1007.22
2017-09-21T17:15:43.737Z,1007.23
2017-09-21T17:16:24.301Z,1007.21
2017-09-21T17:17:04.821Z,1007.19
2017-09-21T17:17:45.261Z,1007.18
2017-09-21T17:19:38.111Z,1007.2
2017-09-21T17:20:18.594Z,1007.25
2017-09-21T17:20:59.080Z,1007.21